sensor_id;sensor_type;location;lat;lon;timestamp;temperature;humidity
24560;DHT22;12727;49.934;8.656;2023-08-31T00:01:46;13.80;99.90
24560;DHT22;12727;49.934;8.656;2023-08-31T00:04:13;13.70;99.90
24560;DHT22;12727;49.934;8.656;2023-08-31T00:06:40;13.70;99.90
24560;DHT22;12727;49.934;8.656;2023-08-31T00:09:06;13.60;99.90
24560;DHT22;12727;49.934;8.656;2023-08-31T00:11:37;13.60;99.90
24560;DHT22;12727;49.934;8.656;2023-08-31T00:14:03;13.60;99.90
24560;DHT22;12727;49.934;8.656;2023-08-31T00:16:29;13.70;99.90
24560;DHT22;12727;49.934;8.656;2023-08-31T00:18:59;13.70;99.90
24560;DHT22;12727;49.934;8.656;2023-08-31T00:21:24;13.60;99.90
24560;DHT22;12727;49.934;8.656;2023-08-31T00:23:50;13.70;99.90
24560;DHT22;12727;49.934;8.656;2023-08-31T00:26:16;13.70;99.90
24560;DHT22;12727;49.934;8.656;2023-08-31T00:28:41;13.80;99.90
24560;DHT22;12727;49.934;8.656;2023-08-31T00:31:11;13.80;99.90
24560;DHT22;12727;49.934;8.656;2023-08-31T00:33:39;13.80;99.90
24560;DHT22;12727;49.934;8.656;2023-08-31T00:36:05;13.70;99.90
24560;DHT22;12727;49.934;8.656;2023-08-31T00:38:31;13.60;99.90
24560;DHT22;12727;49.934;8.656;2023-08-31T00:40:56;13.60;99.90
24560;DHT22;12727;49.934;8.656;2023-08-31T00:43:22;13.70;99.90
24560;DHT22;12727;49.934;8.656;2023-08-31T00:45:50;13.70;99.90
24560;DHT22;12727;49.934;8.656;2023-08-31T00:48:17;13.60;99.90
24560;DHT22;12727;49.934;8.656;2023-08-31T00:50:44;13.60;99.90
24560;DHT22;12727;49.934;8.656;2023-08-31T00:53:09;13.70;99.90
24560;DHT22;12727;49.934;8.656;2023-08-31T00:55:36;13.70;99.90
24560;DHT22;12727;49.934;8.656;2023-08-31T00:58:02;13.70;99.90
24560;DHT22;12727;49.934;8.656;2023-08-31T01:03:13;13.80;99.90
24560;DHT22;12727;49.934;8.656;2023-08-31T01:05:51;13.70;99.90
24560;DHT22;12727;49.934;8.656;2023-08-31T01:14:14;13.50;99.90
24560;DHT22;12727;49.934;8.656;2023-08-31T01:16:44;13.50;99.90
24560;DHT22;12727;49.934;8.656;2023-08-31T01:21:52;13.40;99.90
24560;DHT22;12727;49.934;8.656;2023-08-31T01:24:20;13.40;99.90
24560;DHT22;12727;49.934;8.656;2023-08-31T01:26:47;13.20;99.90
24560;DHT22;12727;49.934;8.656;2023-08-31T01:29:12;13.20;99.90
24560;DHT22;12727;49.934;8.656;2023-08-31T01:31:42;13.10;99.90
24560;DHT22;12727;49.934;8.656;2023-08-31T01:34:08;13.00;99.90
24560;DHT22;12727;49.934;8.656;2023-08-31T01:36:36;13.00;99.90
24560;DHT22;12727;49.934;8.656;2023-08-31T01:39:12;13.00;99.90
24560;DHT22;12727;49.934;8.656;2023-08-31T01:41:40;12.90;99.90
24560;DHT22;12727;49.934;8.656;2023-08-31T01:44:09;12.90;99.90
24560;DHT22;12727;49.934;8.656;2023-08-31T01:46:39;12.90;99.90
24560;DHT22;12727;49.934;8.656;2023-08-31T01:49:05;12.90;99.90
24560;DHT22;12727;49.934;8.656;2023-08-31T01:51:31;12.90;99.90
24560;DHT22;12727;49.934;8.656;2023-08-31T01:53:56;12.90;99.90
24560;DHT22;12727;49.934;8.656;2023-08-31T01:56:23;12.90;99.90
24560;DHT22;12727;49.934;8.656;2023-08-31T01:58:49;13.00;99.90
24560;DHT22;12727;49.934;8.656;2023-08-31T02:01:14;12.90;99.90
24560;DHT22;12727;49.934;8.656;2023-08-31T02:03:40;13.10;99.90
24560;DHT22;12727;49.934;8.656;2023-08-31T02:06:06;13.00;99.90
24560;DHT22;12727;49.934;8.656;2023-08-31T02:08:32;13.10;99.90
24560;DHT22;12727;49.934;8.656;2023-08-31T02:10:57;13.10;99.90
24560;DHT22;12727;49.934;8.656;2023-08-31T02:13:23;13.00;99.90
24560;DHT22;12727;49.934;8.656;2023-08-31T02:15:51;12.90;99.90
24560;DHT22;12727;49.934;8.656;2023-08-31T02:18:17;12.90;99.90
24560;DHT22;12727;49.934;8.656;2023-08-31T02:20:43;12.90;99.90
24560;DHT22;12727;49.934;8.656;2023-08-31T02:23:08;12.80;99.90
24560;DHT22;12727;49.934;8.656;2023-08-31T02:25:34;12.70;99.90
24560;DHT22;12727;49.934;8.656;2023-08-31T02:28:00;12.70;99.90
24560;DHT22;12727;49.934;8.656;2023-08-31T02:30:26;12.70;99.90
24560;DHT22;12727;49.934;8.656;2023-08-31T02:32:51;12.60;99.90
24560;DHT22;12727;49.934;8.656;2023-08-31T02:35:17;12.60;99.90
24560;DHT22;12727;49.934;8.656;2023-08-31T02:37:43;12.60;99.90
24560;DHT22;12727;49.934;8.656;2023-08-31T02:40:09;12.70;99.90
24560;DHT22;12727;49.934;8.656;2023-08-31T02:42:34;12.70;99.90
24560;DHT22;12727;49.934;8.656;2023-08-31T02:45:00;12.80;99.90
24560;DHT22;12727;49.934;8.656;2023-08-31T02:47:26;12.90;99.90
24560;DHT22;12727;49.934;8.656;2023-08-31T02:49:51;12.90;99.90
24560;DHT22;12727;49.934;8.656;2023-08-31T02:52:17;12.90;99.90
24560;DHT22;12727;49.934;8.656;2023-08-31T02:54:42;12.90;99.90
24560;DHT22;12727;49.934;8.656;2023-08-31T02:57:08;13.00;99.90
24560;DHT22;12727;49.934;8.656;2023-08-31T02:59:34;13.00;99.90
24560;DHT22;12727;49.934;8.656;2023-08-31T03:02:02;13.00;99.90
24560;DHT22;12727;49.934;8.656;2023-08-31T03:04:28;13.10;99.90
24560;DHT22;12727;49.934;8.656;2023-08-31T03:06:54;13.20;99.90
24560;DHT22;12727;49.934;8.656;2023-08-31T03:09:19;13.10;99.90
24560;DHT22;12727;49.934;8.656;2023-08-31T03:11:47;13.00;99.90
24560;DHT22;12727;49.934;8.656;2023-08-31T03:14:13;13.00;99.90
24560;DHT22;12727;49.934;8.656;2023-08-31T03:16:38;13.10;99.90
24560;DHT22;12727;49.934;8.656;2023-08-31T03:19:04;13.10;99.90
24560;DHT22;12727;49.934;8.656;2023-08-31T03:21:30;13.10;99.90
24560;DHT22;12727;49.934;8.656;2023-08-31T03:23:55;13.10;99.90
24560;DHT22;12727;49.934;8.656;2023-08-31T03:26:21;13.20;99.90
24560;DHT22;12727;49.934;8.656;2023-08-31T03:28:46;13.20;99.90
24560;DHT22;12727;49.934;8.656;2023-08-31T03:31:12;13.30;99.90
24560;DHT22;12727;49.934;8.656;2023-08-31T03:33:37;13.30;99.90
24560;DHT22;12727;49.934;8.656;2023-08-31T03:36:03;13.30;99.90
24560;DHT22;12727;49.934;8.656;2023-08-31T03:38:31;13.30;99.90
24560;DHT22;12727;49.934;8.656;2023-08-31T03:40:58;13.30;99.90
24560;DHT22;12727;49.934;8.656;2023-08-31T03:43:23;13.20;99.90
24560;DHT22;12727;49.934;8.656;2023-08-31T03:45:53;13.20;99.90
24560;DHT22;12727;49.934;8.656;2023-08-31T03:48:21;13.10;99.90
24560;DHT22;12727;49.934;8.656;2023-08-31T03:50:52;13.00;99.90
24560;DHT22;12727;49.934;8.656;2023-08-31T03:53:18;12.90;99.90
24560;DHT22;12727;49.934;8.656;2023-08-31T03:55:43;12.90;99.90
24560;DHT22;12727;49.934;8.656;2023-08-31T03:58:09;12.90;99.90
24560;DHT22;12727;49.934;8.656;2023-08-31T04:00:34;12.90;99.90
24560;DHT22;12727;49.934;8.656;2023-08-31T04:03:01;12.80;99.90
24560;DHT22;12727;49.934;8.656;2023-08-31T04:05:26;12.80;99.90
24560;DHT22;12727;49.934;8.656;2023-08-31T04:07:52;12.70;99.90
24560;DHT22;12727;49.934;8.656;2023-08-31T04:10:18;12.70;99.90
24560;DHT22;12727;49.934;8.656;2023-08-31T04:12:44;12.70;99.90
24560;DHT22;12727;49.934;8.656;2023-08-31T04:15:10;12.60;99.90
24560;DHT22;12727;49.934;8.656;2023-08-31T04:17:36;12.70;99.90
24560;DHT22;12727;49.934;8.656;2023-08-31T04:20:02;12.70;99.90
24560;DHT22;12727;49.934;8.656;2023-08-31T04:22:31;12.70;99.90
24560;DHT22;12727;49.934;8.656;2023-08-31T04:24:56;12.70;99.90
24560;DHT22;12727;49.934;8.656;2023-08-31T04:27:22;12.60;99.90
24560;DHT22;12727;49.934;8.656;2023-08-31T04:29:47;12.60;99.90
24560;DHT22;12727;49.934;8.656;2023-08-31T04:32:13;12.50;99.90
24560;DHT22;12727;49.934;8.656;2023-08-31T04:34:39;12.50;99.90
24560;DHT22;12727;49.934;8.656;2023-08-31T04:37:04;12.50;99.90
24560;DHT22;12727;49.934;8.656;2023-08-31T04:39:30;12.50;99.90
24560;DHT22;12727;49.934;8.656;2023-08-31T04:41:56;12.50;99.90
24560;DHT22;12727;49.934;8.656;2023-08-31T04:44:21;12.40;99.90
24560;DHT22;12727;49.934;8.656;2023-08-31T04:46:47;12.40;99.90
24560;DHT22;12727;49.934;8.656;2023-08-31T04:49:13;12.40;99.90
24560;DHT22;12727;49.934;8.656;2023-08-31T04:51:39;12.40;99.90
24560;DHT22;12727;49.934;8.656;2023-08-31T04:54:07;12.40;99.90
24560;DHT22;12727;49.934;8.656;2023-08-31T04:56:33;12.50;99.90
24560;DHT22;12727;49.934;8.656;2023-08-31T04:58:59;12.50;99.90
24560;DHT22;12727;49.934;8.656;2023-08-31T05:01:25;12.60;99.90
24560;DHT22;12727;49.934;8.656;2023-08-31T05:03:50;12.60;99.90
24560;DHT22;12727;49.934;8.656;2023-08-31T05:06:16;12.60;99.90
24560;DHT22;12727;49.934;8.656;2023-08-31T05:08:42;12.60;99.90
24560;DHT22;12727;49.934;8.656;2023-08-31T05:11:07;12.60;99.90
24560;DHT22;12727;49.934;8.656;2023-08-31T05:13:34;12.60;99.90
24560;DHT22;12727;49.934;8.656;2023-08-31T05:15:59;12.60;99.90
24560;DHT22;12727;49.934;8.656;2023-08-31T05:18:25;12.50;99.90
24560;DHT22;12727;49.934;8.656;2023-08-31T05:20:50;12.60;99.90
24560;DHT22;12727;49.934;8.656;2023-08-31T05:23:16;12.50;99.90
24560;DHT22;12727;49.934;8.656;2023-08-31T05:25:43;12.60;99.90
24560;DHT22;12727;49.934;8.656;2023-08-31T05:28:08;12.60;99.90
24560;DHT22;12727;49.934;8.656;2023-08-31T05:30:34;12.60;99.90
24560;DHT22;12727;49.934;8.656;2023-08-31T05:33:03;12.60;99.90
24560;DHT22;12727;49.934;8.656;2023-08-31T05:35:31;12.60;99.90
24560;DHT22;12727;49.934;8.656;2023-08-31T05:37:57;12.70;99.90
24560;DHT22;12727;49.934;8.656;2023-08-31T05:40:22;12.70;99.90
24560;DHT22;12727;49.934;8.656;2023-08-31T05:42:48;12.70;99.90
24560;DHT22;12727;49.934;8.656;2023-08-31T05:45:13;12.70;99.90
24560;DHT22;12727;49.934;8.656;2023-08-31T05:47:41;12.70;99.90
24560;DHT22;12727;49.934;8.656;2023-08-31T05:50:06;12.80;99.90
24560;DHT22;12727;49.934;8.656;2023-08-31T05:52:32;12.80;99.90
24560;DHT22;12727;49.934;8.656;2023-08-31T05:54:58;12.90;99.90
24560;DHT22;12727;49.934;8.656;2023-08-31T05:57:23;13.00;99.90
24560;DHT22;12727;49.934;8.656;2023-08-31T05:59:49;13.00;99.90
24560;DHT22;12727;49.934;8.656;2023-08-31T06:02:14;13.10;99.90
24560;DHT22;12727;49.934;8.656;2023-08-31T06:04:41;13.10;99.90
24560;DHT22;12727;49.934;8.656;2023-08-31T06:07:06;13.20;99.90
24560;DHT22;12727;49.934;8.656;2023-08-31T06:09:32;13.20;99.90
24560;DHT22;12727;49.934;8.656;2023-08-31T06:11:57;13.30;99.90
24560;DHT22;12727;49.934;8.656;2023-08-31T06:14:23;13.40;99.90
24560;DHT22;12727;49.934;8.656;2023-08-31T06:16:48;13.40;99.90
24560;DHT22;12727;49.934;8.656;2023-08-31T06:19:14;13.50;99.90
24560;DHT22;12727;49.934;8.656;2023-08-31T06:21:41;13.60;99.90
24560;DHT22;12727;49.934;8.656;2023-08-31T06:24:07;13.70;99.90
24560;DHT22;12727;49.934;8.656;2023-08-31T06:26:35;13.70;99.90
24560;DHT22;12727;49.934;8.656;2023-08-31T06:29:01;13.80;99.90
24560;DHT22;12727;49.934;8.656;2023-08-31T06:31:27;13.90;99.90
24560;DHT22;12727;49.934;8.656;2023-08-31T06:33:53;14.00;99.90
24560;DHT22;12727;49.934;8.656;2023-08-31T06:36:18;14.10;99.90
24560;DHT22;12727;49.934;8.656;2023-08-31T06:38:44;14.30;99.90
24560;DHT22;12727;49.934;8.656;2023-08-31T06:41:09;14.40;99.90
24560;DHT22;12727;49.934;8.656;2023-08-31T06:43:35;14.40;99.90
24560;DHT22;12727;49.934;8.656;2023-08-31T06:46:01;14.40;99.90
24560;DHT22;12727;49.934;8.656;2023-08-31T06:48:26;14.60;99.90
24560;DHT22;12727;49.934;8.656;2023-08-31T06:50:52;14.70;99.90
24560;DHT22;12727;49.934;8.656;2023-08-31T06:53:17;14.80;99.90
24560;DHT22;12727;49.934;8.656;2023-08-31T06:55:43;14.90;99.90
24560;DHT22;12727;49.934;8.656;2023-08-31T06:58:09;15.20;99.90
24560;DHT22;12727;49.934;8.656;2023-08-31T07:00:35;15.50;99.90
24560;DHT22;12727;49.934;8.656;2023-08-31T07:03:00;15.80;99.90
24560;DHT22;12727;49.934;8.656;2023-08-31T07:05:26;16.00;99.90
24560;DHT22;12727;49.934;8.656;2023-08-31T07:07:53;16.20;99.90
24560;DHT22;12727;49.934;8.656;2023-08-31T07:10:20;16.40;99.90
24560;DHT22;12727;49.934;8.656;2023-08-31T07:12:45;16.40;99.90
24560;DHT22;12727;49.934;8.656;2023-08-31T07:15:11;16.60;99.90
24560;DHT22;12727;49.934;8.656;2023-08-31T07:17:36;16.70;99.90
24560;DHT22;12727;49.934;8.656;2023-08-31T07:20:02;16.70;99.90
24560;DHT22;12727;49.934;8.656;2023-08-31T07:22:32;16.90;99.90
24560;DHT22;12727;49.934;8.656;2023-08-31T07:24:58;17.20;99.90
24560;DHT22;12727;49.934;8.656;2023-08-31T07:27:24;17.40;99.90
24560;DHT22;12727;49.934;8.656;2023-08-31T07:29:49;17.00;99.90
24560;DHT22;12727;49.934;8.656;2023-08-31T07:32:15;16.80;99.90
24560;DHT22;12727;49.934;8.656;2023-08-31T07:34:40;16.50;99.90
24560;DHT22;12727;49.934;8.656;2023-08-31T07:37:06;16.20;99.90
24560;DHT22;12727;49.934;8.656;2023-08-31T07:39:31;16.00;99.90
24560;DHT22;12727;49.934;8.656;2023-08-31T07:41:57;15.80;99.90
24560;DHT22;12727;49.934;8.656;2023-08-31T07:44:24;15.70;99.90
24560;DHT22;12727;49.934;8.656;2023-08-31T07:46:50;15.70;99.90
24560;DHT22;12727;49.934;8.656;2023-08-31T07:49:17;15.70;99.90
24560;DHT22;12727;49.934;8.656;2023-08-31T07:51:42;15.70;99.90
24560;DHT22;12727;49.934;8.656;2023-08-31T07:54:07;15.90;99.90
24560;DHT22;12727;49.934;8.656;2023-08-31T07:56:33;16.30;99.90
24560;DHT22;12727;49.934;8.656;2023-08-31T07:58:58;16.70;99.90
24560;DHT22;12727;49.934;8.656;2023-08-31T08:01:24;16.60;99.90
24560;DHT22;12727;49.934;8.656;2023-08-31T08:03:50;16.30;99.90
24560;DHT22;12727;49.934;8.656;2023-08-31T08:06:15;16.20;99.90
24560;DHT22;12727;49.934;8.656;2023-08-31T08:08:41;16.10;99.90
24560;DHT22;12727;49.934;8.656;2023-08-31T08:11:06;16.20;99.90
24560;DHT22;12727;49.934;8.656;2023-08-31T08:13:32;16.40;99.90
24560;DHT22;12727;49.934;8.656;2023-08-31T08:15:57;16.50;99.90
24560;DHT22;12727;49.934;8.656;2023-08-31T08:18:23;16.40;99.90
24560;DHT22;12727;49.934;8.656;2023-08-31T08:20:50;16.20;99.90
24560;DHT22;12727;49.934;8.656;2023-08-31T08:23:16;16.10;99.90
24560;DHT22;12727;49.934;8.656;2023-08-31T08:25:41;16.10;99.90
24560;DHT22;12727;49.934;8.656;2023-08-31T08:28:07;16.00;99.90
24560;DHT22;12727;49.934;8.656;2023-08-31T08:30:32;16.10;99.90
24560;DHT22;12727;49.934;8.656;2023-08-31T08:32:58;16.20;99.90
24560;DHT22;12727;49.934;8.656;2023-08-31T08:35:24;16.20;99.90
24560;DHT22;12727;49.934;8.656;2023-08-31T08:37:50;16.30;99.90
24560;DHT22;12727;49.934;8.656;2023-08-31T08:40:16;16.60;99.90
24560;DHT22;12727;49.934;8.656;2023-08-31T08:42:42;16.60;99.90
24560;DHT22;12727;49.934;8.656;2023-08-31T08:45:14;16.50;99.90
24560;DHT22;12727;49.934;8.656;2023-08-31T08:47:46;16.30;99.90
24560;DHT22;12727;49.934;8.656;2023-08-31T08:50:12;16.30;99.90
24560;DHT22;12727;49.934;8.656;2023-08-31T08:52:39;16.40;99.90
24560;DHT22;12727;49.934;8.656;2023-08-31T08:55:05;16.80;99.90
24560;DHT22;12727;49.934;8.656;2023-08-31T08:57:31;17.70;99.90
24560;DHT22;12727;49.934;8.656;2023-08-31T09:00:00;18.50;99.90
24560;DHT22;12727;49.934;8.656;2023-08-31T09:02:25;18.40;99.90
24560;DHT22;12727;49.934;8.656;2023-08-31T09:04:51;18.60;99.90
24560;DHT22;12727;49.934;8.656;2023-08-31T09:07:20;19.30;99.90
24560;DHT22;12727;49.934;8.656;2023-08-31T09:09:54;19.80;99.90
24560;DHT22;12727;49.934;8.656;2023-08-31T09:12:23;19.50;99.90
24560;DHT22;12727;49.934;8.656;2023-08-31T09:15:03;20.30;99.90
24560;DHT22;12727;49.934;8.656;2023-08-31T09:17:42;19.80;98.70
24560;DHT22;12727;49.934;8.656;2023-08-31T09:20:11;20.00;99.20
24560;DHT22;12727;49.934;8.656;2023-08-31T09:22:36;20.00;99.60
24560;DHT22;12727;49.934;8.656;2023-08-31T09:25:08;19.70;99.10
24560;DHT22;12727;49.934;8.656;2023-08-31T09:27:37;18.90;99.90
24560;DHT22;12727;49.934;8.656;2023-08-31T09:30:05;19.00;99.90
24560;DHT22;12727;49.934;8.656;2023-08-31T09:32:31;19.00;99.80
24560;DHT22;12727;49.934;8.656;2023-08-31T09:34:57;19.40;99.40
24560;DHT22;12727;49.934;8.656;2023-08-31T09:37:22;19.70;97.20
24560;DHT22;12727;49.934;8.656;2023-08-31T09:39:49;19.30;97.40
24560;DHT22;12727;49.934;8.656;2023-08-31T09:42:14;19.10;97.90
24560;DHT22;12727;49.934;8.656;2023-08-31T09:44:43;19.40;97.60
24560;DHT22;12727;49.934;8.656;2023-08-31T09:47:09;20.00;97.10
24560;DHT22;12727;49.934;8.656;2023-08-31T09:49:35;20.90;96.30
24560;DHT22;12727;49.934;8.656;2023-08-31T09:52:03;21.50;94.70
24560;DHT22;12727;49.934;8.656;2023-08-31T09:54:30;21.70;93.20
24560;DHT22;12727;49.934;8.656;2023-08-31T09:56:59;21.00;93.20
24560;DHT22;12727;49.934;8.656;2023-08-31T09:59:27;20.70;91.60
24560;DHT22;12727;49.934;8.656;2023-08-31T10:01:52;20.70;92.50
24560;DHT22;12727;49.934;8.656;2023-08-31T10:04:21;20.90;92.00
24560;DHT22;12727;49.934;8.656;2023-08-31T10:06:47;21.60;91.20
24560;DHT22;12727;49.934;8.656;2023-08-31T10:09:14;22.20;89.50
24560;DHT22;12727;49.934;8.656;2023-08-31T10:11:41;22.80;86.00
24560;DHT22;12727;49.934;8.656;2023-08-31T10:14:10;22.40;86.70
24560;DHT22;12727;49.934;8.656;2023-08-31T10:16:39;21.70;84.20
24560;DHT22;12727;49.934;8.656;2023-08-31T10:19:05;20.90;86.50
24560;DHT22;12727;49.934;8.656;2023-08-31T10:21:30;20.90;88.70
24560;DHT22;12727;49.934;8.656;2023-08-31T10:23:57;20.80;89.90
24560;DHT22;12727;49.934;8.656;2023-08-31T10:26:24;22.00;87.70
24560;DHT22;12727;49.934;8.656;2023-08-31T10:28:51;22.60;80.20
24560;DHT22;12727;49.934;8.656;2023-08-31T10:31:17;22.30;82.10
24560;DHT22;12727;49.934;8.656;2023-08-31T10:33:45;21.70;82.60
24560;DHT22;12727;49.934;8.656;2023-08-31T10:36:16;21.60;83.90
24560;DHT22;12727;49.934;8.656;2023-08-31T10:38:45;21.10;84.70
24560;DHT22;12727;49.934;8.656;2023-08-31T10:46:25;21.10;83.10
24560;DHT22;12727;49.934;8.656;2023-08-31T10:48:59;20.90;86.20
24560;DHT22;12727;49.934;8.656;2023-08-31T10:51:32;20.90;85.50
24560;DHT22;12727;49.934;8.656;2023-08-31T10:56:32;21.40;84.00
24560;DHT22;12727;49.934;8.656;2023-08-31T10:58:59;22.10;82.00
24560;DHT22;12727;49.934;8.656;2023-08-31T11:01:54;21.70;80.90
24560;DHT22;12727;49.934;8.656;2023-08-31T11:04:21;21.00;82.00
24560;DHT22;12727;49.934;8.656;2023-08-31T11:06:46;20.30;83.60
24560;DHT22;12727;49.934;8.656;2023-08-31T11:09:20;20.00;85.80
24560;DHT22;12727;49.934;8.656;2023-08-31T11:11:46;19.90;84.60
24560;DHT22;12727;49.934;8.656;2023-08-31T11:14:13;19.90;86.10
24560;DHT22;12727;49.934;8.656;2023-08-31T11:16:38;19.80;87.00
24560;DHT22;12727;49.934;8.656;2023-08-31T11:19:04;19.70;86.20
24560;DHT22;12727;49.934;8.656;2023-08-31T11:21:30;19.70;86.50
24560;DHT22;12727;49.934;8.656;2023-08-31T11:23:57;19.60;86.40
24560;DHT22;12727;49.934;8.656;2023-08-31T11:26:25;19.50;87.40
24560;DHT22;12727;49.934;8.656;2023-08-31T11:28:51;19.60;87.40
24560;DHT22;12727;49.934;8.656;2023-08-31T11:31:23;19.70;87.10
24560;DHT22;12727;49.934;8.656;2023-08-31T11:33:49;19.90;86.60
24560;DHT22;12727;49.934;8.656;2023-08-31T11:36:15;19.70;85.40
24560;DHT22;12727;49.934;8.656;2023-08-31T11:38:43;19.60;85.40
24560;DHT22;12727;49.934;8.656;2023-08-31T11:41:09;19.50;85.90
24560;DHT22;12727;49.934;8.656;2023-08-31T11:43:35;19.30;85.60
24560;DHT22;12727;49.934;8.656;2023-08-31T11:46:00;19.30;86.70
24560;DHT22;12727;49.934;8.656;2023-08-31T11:48:26;19.30;84.80
24560;DHT22;12727;49.934;8.656;2023-08-31T11:50:52;19.40;84.10
24560;DHT22;12727;49.934;8.656;2023-08-31T11:53:18;19.50;84.30
24560;DHT22;12727;49.934;8.656;2023-08-31T11:55:53;19.80;83.70
24560;DHT22;12727;49.934;8.656;2023-08-31T11:58:20;20.20;83.50
24560;DHT22;12727;49.934;8.656;2023-08-31T12:00:54;20.00;82.30
24560;DHT22;12727;49.934;8.656;2023-08-31T12:03:19;19.80;81.40
24560;DHT22;12727;49.934;8.656;2023-08-31T12:05:46;19.70;82.10
24560;DHT22;12727;49.934;8.656;2023-08-31T12:08:12;19.80;83.20
24560;DHT22;12727;49.934;8.656;2023-08-31T12:10:40;19.80;81.70
24560;DHT22;12727;49.934;8.656;2023-08-31T12:13:10;19.60;81.00
24560;DHT22;12727;49.934;8.656;2023-08-31T12:15:36;19.50;78.30
24560;DHT22;12727;49.934;8.656;2023-08-31T12:18:12;19.40;79.30
24560;DHT22;12727;49.934;8.656;2023-08-31T12:20:48;19.50;79.10
24560;DHT22;12727;49.934;8.656;2023-08-31T12:23:16;19.60;79.40
24560;DHT22;12727;49.934;8.656;2023-08-31T12:25:52;19.60;79.40
24560;DHT22;12727;49.934;8.656;2023-08-31T12:28:19;19.60;80.50
24560;DHT22;12727;49.934;8.656;2023-08-31T12:30:52;19.90;81.10
24560;DHT22;12727;49.934;8.656;2023-08-31T12:33:18;20.40;80.10
24560;DHT22;12727;49.934;8.656;2023-08-31T12:35:44;20.70;76.30
24560;DHT22;12727;49.934;8.656;2023-08-31T12:38:09;20.80;75.00
24560;DHT22;12727;49.934;8.656;2023-08-31T12:40:35;20.70;71.50
24560;DHT22;12727;49.934;8.656;2023-08-31T12:43:01;20.80;71.80
24560;DHT22;12727;49.934;8.656;2023-08-31T12:45:26;20.70;72.10
24560;DHT22;12727;49.934;8.656;2023-08-31T12:47:52;20.60;68.50
24560;DHT22;12727;49.934;8.656;2023-08-31T12:50:17;20.70;71.70
24560;DHT22;12727;49.934;8.656;2023-08-31T12:52:43;20.70;70.70
24560;DHT22;12727;49.934;8.656;2023-08-31T12:55:15;20.60;70.90
24560;DHT22;12727;49.934;8.656;2023-08-31T12:57:42;20.50;70.90
24560;DHT22;12727;49.934;8.656;2023-08-31T13:00:08;20.20;71.50
24560;DHT22;12727;49.934;8.656;2023-08-31T13:02:38;20.00;72.70
24560;DHT22;12727;49.934;8.656;2023-08-31T13:05:04;20.00;70.90
24560;DHT22;12727;49.934;8.656;2023-08-31T13:07:31;19.90;70.80
24560;DHT22;12727;49.934;8.656;2023-08-31T13:09:59;19.90;71.00
24560;DHT22;12727;49.934;8.656;2023-08-31T13:12:25;20.00;69.60
24560;DHT22;12727;49.934;8.656;2023-08-31T13:14:50;20.10;69.50
24560;DHT22;12727;49.934;8.656;2023-08-31T13:17:16;20.50;70.70
24560;DHT22;12727;49.934;8.656;2023-08-31T13:19:41;20.70;70.30
24560;DHT22;12727;49.934;8.656;2023-08-31T13:22:07;20.80;70.70
24560;DHT22;12727;49.934;8.656;2023-08-31T13:24:32;20.80;71.50
24560;DHT22;12727;49.934;8.656;2023-08-31T13:26:58;20.80;72.40
24560;DHT22;12727;49.934;8.656;2023-08-31T13:29:23;20.70;72.20
24560;DHT22;12727;49.934;8.656;2023-08-31T13:31:49;20.60;72.60
24560;DHT22;12727;49.934;8.656;2023-08-31T13:34:14;20.40;72.30
24560;DHT22;12727;49.934;8.656;2023-08-31T13:36:41;20.30;73.70
24560;DHT22;12727;49.934;8.656;2023-08-31T13:39:06;20.30;73.50
24560;DHT22;12727;49.934;8.656;2023-08-31T13:41:32;20.40;72.00
24560;DHT22;12727;49.934;8.656;2023-08-31T13:43:58;20.50;72.30
24560;DHT22;12727;49.934;8.656;2023-08-31T13:46:24;20.50;71.80
24560;DHT22;12727;49.934;8.656;2023-08-31T13:48:49;20.50;71.80
24560;DHT22;12727;49.934;8.656;2023-08-31T13:51:15;20.50;71.80
24560;DHT22;12727;49.934;8.656;2023-08-31T13:53:40;20.40;71.80
24560;DHT22;12727;49.934;8.656;2023-08-31T13:56:06;20.60;71.00
24560;DHT22;12727;49.934;8.656;2023-08-31T13:58:31;20.60;69.00
24560;DHT22;12727;49.934;8.656;2023-08-31T14:00:59;20.50;68.90
24560;DHT22;12727;49.934;8.656;2023-08-31T14:03:25;20.30;70.10
24560;DHT22;12727;49.934;8.656;2023-08-31T14:05:51;20.20;71.60
24560;DHT22;12727;49.934;8.656;2023-08-31T14:08:16;20.10;72.40
24560;DHT22;12727;49.934;8.656;2023-08-31T14:10:42;20.40;72.20
24560;DHT22;12727;49.934;8.656;2023-08-31T14:13:07;20.40;69.20
24560;DHT22;12727;49.934;8.656;2023-08-31T14:15:33;20.30;71.30
24560;DHT22;12727;49.934;8.656;2023-08-31T14:17:58;20.50;72.00
24560;DHT22;12727;49.934;8.656;2023-08-31T14:20:24;20.50;72.40
24560;DHT22;12727;49.934;8.656;2023-08-31T14:22:50;20.50;72.90
24560;DHT22;12727;49.934;8.656;2023-08-31T14:25:16;20.60;73.70
24560;DHT22;12727;49.934;8.656;2023-08-31T14:27:42;20.60;74.10
24560;DHT22;12727;49.934;8.656;2023-08-31T14:30:08;20.70;74.60
24560;DHT22;12727;49.934;8.656;2023-08-31T14:32:34;20.60;75.20
24560;DHT22;12727;49.934;8.656;2023-08-31T14:35:00;20.50;74.50
24560;DHT22;12727;49.934;8.656;2023-08-31T14:37:25;20.40;74.70
24560;DHT22;12727;49.934;8.656;2023-08-31T14:39:51;20.30;75.00
24560;DHT22;12727;49.934;8.656;2023-08-31T14:42:17;20.10;75.50
24560;DHT22;12727;49.934;8.656;2023-08-31T14:44:46;20.20;76.10
24560;DHT22;12727;49.934;8.656;2023-08-31T14:47:12;20.30;76.10
24560;DHT22;12727;49.934;8.656;2023-08-31T14:49:39;20.50;75.20
24560;DHT22;12727;49.934;8.656;2023-08-31T14:52:06;20.60;74.50
24560;DHT22;12727;49.934;8.656;2023-08-31T14:54:32;20.70;73.90
24560;DHT22;12727;49.934;8.656;2023-08-31T14:56:58;20.70;72.90
24560;DHT22;12727;49.934;8.656;2023-08-31T14:59:24;20.40;72.90
24560;DHT22;12727;49.934;8.656;2023-08-31T15:01:50;20.40;74.10
24560;DHT22;12727;49.934;8.656;2023-08-31T15:04:15;20.30;73.10
24560;DHT22;12727;49.934;8.656;2023-08-31T15:06:41;20.30;75.20
24560;DHT22;12727;49.934;8.656;2023-08-31T15:09:07;20.20;74.40
24560;DHT22;12727;49.934;8.656;2023-08-31T15:11:32;20.10;75.40
24560;DHT22;12727;49.934;8.656;2023-08-31T15:13:58;20.00;75.40
24560;DHT22;12727;49.934;8.656;2023-08-31T15:16:24;20.00;76.10
24560;DHT22;12727;49.934;8.656;2023-08-31T15:18:50;20.00;76.80
24560;DHT22;12727;49.934;8.656;2023-08-31T15:21:15;20.10;77.50
24560;DHT22;12727;49.934;8.656;2023-08-31T15:23:43;20.10;76.90
24560;DHT22;12727;49.934;8.656;2023-08-31T15:26:09;19.90;77.20
24560;DHT22;12727;49.934;8.656;2023-08-31T15:28:34;19.90;78.00
24560;DHT22;12727;49.934;8.656;2023-08-31T15:31:00;19.90;78.00
24560;DHT22;12727;49.934;8.656;2023-08-31T15:33:25;19.90;77.10
24560;DHT22;12727;49.934;8.656;2023-08-31T15:35:51;19.90;77.50
24560;DHT22;12727;49.934;8.656;2023-08-31T15:38:19;19.80;77.40
24560;DHT22;12727;49.934;8.656;2023-08-31T15:40:47;19.80;78.30
24560;DHT22;12727;49.934;8.656;2023-08-31T15:43:13;19.90;78.10
24560;DHT22;12727;49.934;8.656;2023-08-31T15:45:44;19.80;78.70